createdAt,value
2018-05-24T00:01:18.435Z,14.67
2018-05-24T00:03:45.954Z,14.97
2018-05-24T00:06:13.947Z,14.67
2018-05-24T00:08:41.916Z,15.00
2018-05-24T00:11:09.483Z,15.60
2018-05-24T00:13:37.022Z,14.80
2018-05-24T00:16:05.593Z,15.27
2018-05-24T00:18:33.061Z,15.00
2018-05-24T00:21:00.555Z,15.57
2018-05-24T00:23:28.025Z,15.30
2018-05-24T00:25:55.573Z,14.33
2018-05-24T00:28:24.134Z,15.63
2018-05-24T00:30:51.624Z,15.30
2018-05-24T00:33:19.672Z,14.50
2018-05-24T00:35:47.217Z,14.47
2018-05-24T00:38:14.754Z,14.27
2018-05-24T00:40:43.057Z,13.83
2018-05-24T00:43:10.701Z,15.30
2018-05-24T00:45:38.155Z,15.20
2018-05-24T00:48:05.966Z,15.67
2018-05-24T00:50:33.560Z,15.40
2018-05-24T00:53:01.039Z,16.13
2018-05-24T00:55:40.159Z,16.17
2018-05-24T00:58:08.316Z,16.60
2018-05-24T01:00:35.710Z,17.00
2018-05-24T01:03:03.209Z,16.67
2018-05-24T01:05:30.724Z,16.37
2018-05-24T01:07:58.322Z,16.80
2018-05-24T01:10:25.808Z,15.47
2018-05-24T01:12:53.280Z,17.10
2018-05-24T01:15:20.756Z,14.57
2018-05-24T01:17:48.227Z,16.03
2018-05-24T01:20:15.732Z,14.80
2018-05-24T01:22:43.190Z,15.60
2018-05-24T01:25:10.687Z,15.80
2018-05-24T01:27:38.177Z,16.10
2018-05-24T01:30:05.693Z,15.40
2018-05-24T01:32:33.156Z,15.73
2018-05-24T01:35:00.628Z,16.70
2018-05-24T01:37:40.018Z,17.53
2018-05-24T01:40:07.537Z,17.60
2018-05-24T01:42:34.988Z,18.60
2018-05-24T01:45:02.470Z,18.90
2018-05-24T01:47:29.929Z,18.37
2018-05-24T01:49:57.513Z,19.03
2018-05-24T01:52:24.998Z,21.37
2018-05-24T01:54:52.502Z,20.80
2018-05-24T01:57:19.994Z,21.20
2018-05-24T01:59:48.313Z,20.77
2018-05-24T02:02:15.799Z,21.80
2018-05-24T02:04:43.336Z,20.80
2018-05-24T02:07:10.929Z,20.67
2018-05-24T02:09:38.403Z,20.97
2018-05-24T02:12:05.882Z,21.97
2018-05-24T02:14:33.356Z,20.47
2018-05-24T02:17:00.827Z,21.40
2018-05-24T02:19:28.409Z,21.30
2018-05-24T02:21:55.893Z,21.77
2018-05-24T02:24:23.355Z,21.80
2018-05-24T02:26:50.883Z,20.70
2018-05-24T02:29:18.433Z,22.47
2018-05-24T02:31:45.983Z,21.67
2018-05-24T02:34:13.443Z,21.83
2018-05-24T02:36:40.957Z,21.80
2018-05-24T02:39:08.457Z,21.07
2018-05-24T02:41:35.939Z,21.77
2018-05-24T02:44:03.401Z,22.63
2018-05-24T02:46:30.872Z,20.73
2018-05-24T02:48:58.359Z,20.57
2018-05-24T02:51:25.944Z,19.80
2018-05-24T02:53:53.426Z,19.40
2018-05-24T02:56:21.053Z,18.50
2018-05-24T02:58:48.416Z,18.07
2018-05-24T03:01:15.890Z,19.10
2018-05-24T03:03:43.461Z,18.10
2018-05-24T03:06:10.988Z,18.10
2018-05-24T03:08:38.549Z,18.40
2018-05-24T03:11:06.034Z,17.53
2018-05-24T03:13:33.564Z,17.30
2018-05-24T03:16:01.015Z,17.83
2018-05-24T03:18:28.511Z,18.90
2018-05-24T03:20:55.952Z,19.60
2018-05-24T03:23:23.505Z,19.27
2018-05-24T03:25:50.981Z,21.60
2018-05-24T03:28:18.920Z,18.90
2018-05-24T03:30:47.512Z,17.67
2018-05-24T03:33:15.062Z,19.07
2018-05-24T03:35:42.636Z,18.70
2018-05-24T03:38:10.088Z,19.40
2018-05-24T03:40:37.557Z,18.50
2018-05-24T03:43:05.007Z,18.87
2018-05-24T03:45:32.547Z,19.23
2018-05-24T03:48:00.022Z,19.10
2018-05-24T03:50:27.502Z,20.30
2018-05-24T03:52:55.595Z,19.40
2018-05-24T03:55:23.113Z,18.83
2018-05-24T03:57:51.091Z,19.80
2018-05-24T04:00:30.499Z,18.97
2018-05-24T04:03:09.873Z,19.30
2018-05-24T04:05:37.381Z,19.67
2018-05-24T04:08:04.867Z,20.20
2018-05-24T04:10:33.221Z,18.23
2018-05-24T04:13:00.706Z,17.67
2018-05-24T04:15:28.163Z,18.47
2018-05-24T04:17:55.636Z,20.40
2018-05-24T04:20:23.114Z,20.90
2018-05-24T04:22:50.590Z,19.50
2018-05-24T04:25:18.093Z,20.67
2018-05-24T04:27:45.581Z,19.33
2018-05-24T04:30:13.125Z,18.53
2018-05-24T04:32:40.675Z,19.30
2018-05-24T04:35:08.201Z,18.93
2018-05-24T04:37:35.690Z,19.50
2018-05-24T04:40:03.187Z,19.47
2018-05-24T04:42:30.781Z,19.07
2018-05-24T04:44:58.258Z,18.97
2018-05-24T04:47:27.318Z,19.70
2018-05-24T04:49:54.814Z,18.50
2018-05-24T04:52:22.773Z,19.30
2018-05-24T04:54:51.059Z,20.00
2018-05-24T04:57:18.618Z,19.77
2018-05-24T04:59:46.166Z,19.80
2018-05-24T05:02:13.645Z,19.07
2018-05-24T05:04:41.232Z,18.50
2018-05-24T05:07:08.720Z,18.60
2018-05-24T05:09:36.211Z,19.60
2018-05-24T05:12:04.512Z,19.40
2018-05-24T05:14:32.381Z,18.87
2018-05-24T05:16:59.815Z,20.20
2018-05-24T05:19:27.452Z,20.83
2018-05-24T05:21:54.954Z,19.97
2018-05-24T05:24:22.442Z,19.83
2018-05-24T05:26:49.964Z,19.70
2018-05-24T05:29:17.524Z,20.00
2018-05-24T05:31:45.674Z,20.80
2018-05-24T05:34:13.148Z,20.90
2018-05-24T05:36:40.631Z,20.50
2018-05-24T05:39:09.179Z,19.43
2018-05-24T05:41:36.647Z,21.30
2018-05-24T05:44:04.112Z,20.47
2018-05-24T05:46:31.703Z,19.53
2018-05-24T05:48:59.509Z,18.90
2018-05-24T05:51:30.541Z,18.37
2018-05-24T05:53:58.010Z,19.10
2018-05-24T05:56:25.520Z,19.53
2018-05-24T05:58:53.026Z,19.00
2018-05-24T06:01:21.182Z,19.77
2018-05-24T06:03:48.718Z,19.70
2018-05-24T06:06:16.256Z,20.80
2018-05-24T06:08:43.790Z,19.20
2018-05-24T06:11:11.301Z,20.07
2018-05-24T06:13:38.793Z,20.57
2018-05-24T06:16:06.241Z,19.73
2018-05-24T06:18:33.833Z,20.13
2018-05-24T06:21:01.487Z,19.83
2018-05-24T06:23:29.321Z,20.30
2018-05-24T06:25:57.238Z,19.33
2018-05-24T06:28:24.885Z,20.63
2018-05-24T06:30:52.251Z,20.57
2018-05-24T06:33:19.802Z,21.10
2018-05-24T06:35:48.462Z,20.77
2018-05-24T06:38:17.278Z,21.60
2018-05-24T06:40:44.791Z,21.37
2018-05-24T06:43:12.307Z,20.80
2018-05-24T06:45:39.880Z,20.73
2018-05-24T06:48:07.817Z,21.07
2018-05-24T06:50:35.361Z,19.77
2018-05-24T06:53:02.851Z,20.07
2018-05-24T06:55:30.318Z,19.90
2018-05-24T06:57:57.802Z,19.20
2018-05-24T07:00:25.311Z,20.80
2018-05-24T07:02:52.825Z,19.13
2018-05-24T07:05:20.322Z,19.53
2018-05-24T07:07:47.804Z,18.97
2018-05-24T07:10:15.293Z,19.67
2018-05-24T07:12:42.898Z,19.40
2018-05-24T07:15:10.420Z,19.10
2018-05-24T07:17:37.929Z,19.00
2018-05-24T07:20:05.414Z,18.43
2018-05-24T07:22:32.948Z,18.97
2018-05-24T07:25:00.436Z,18.97
2018-05-24T07:27:27.998Z,19.80
2018-05-24T07:29:55.451Z,17.97
2018-05-24T07:32:23.081Z,17.83
2018-05-24T07:34:50.553Z,16.67
2018-05-24T07:37:18.007Z,17.07
2018-05-24T07:39:46.264Z,18.60
2018-05-24T07:42:13.751Z,16.87
2018-05-24T07:44:41.341Z,16.93
2018-05-24T07:47:08.916Z,18.90
2018-05-24T07:49:36.418Z,18.90
2018-05-24T07:52:03.935Z,18.33
2018-05-24T07:54:31.497Z,17.60
2018-05-24T07:56:59.016Z,18.00
2018-05-24T07:59:26.492Z,18.20
2018-05-24T08:01:53.983Z,17.47
2018-05-24T08:04:21.470Z,18.50
2018-05-24T08:06:48.981Z,18.77
2018-05-24T08:09:16.766Z,18.90
2018-05-24T08:11:44.245Z,18.07
2018-05-24T08:14:12.570Z,18.33
2018-05-24T08:16:40.192Z,17.60
2018-05-24T08:19:07.812Z,17.83
2018-05-24T08:21:35.342Z,18.53
2018-05-24T08:24:02.865Z,18.07
2018-05-24T08:26:30.516Z,19.53
2018-05-24T08:28:58.008Z,17.37
2018-05-24T08:31:25.477Z,18.00
2018-05-24T08:33:52.956Z,20.67
2018-05-24T08:36:20.541Z,18.73
2018-05-24T08:38:48.026Z,20.10
2018-05-24T08:41:15.584Z,20.07
2018-05-24T08:43:43.074Z,20.40
2018-05-24T08:46:11.339Z,18.77
2018-05-24T08:48:38.884Z,19.67
2018-05-24T08:51:06.929Z,19.90
2018-05-24T08:53:34.405Z,19.13
2018-05-24T08:56:02.032Z,20.83
2018-05-24T08:58:29.533Z,19.27
2018-05-24T09:00:57.002Z,19.00
2018-05-24T09:03:26.319Z,17.07
2018-05-24T09:05:53.896Z,19.00
2018-05-24T09:08:21.423Z,20.00
2018-05-24T09:10:48.902Z,18.30
2018-05-24T09:13:16.413Z,19.60
2018-05-24T09:15:43.873Z,18.87
2018-05-24T09:18:12.520Z,18.70
2018-05-24T09:20:40.005Z,18.67
2018-05-24T09:23:07.494Z,18.47
2018-05-24T09:25:35.598Z,16.60
2018-05-24T09:28:03.164Z,15.97
2018-05-24T09:30:30.675Z,17.10
2018-05-24T09:32:58.142Z,17.13
2018-05-24T09:35:25.648Z,17.30
2018-05-24T09:37:53.117Z,15.97
2018-05-24T09:40:20.680Z,15.93
2018-05-24T09:42:49.579Z,16.57
2018-05-24T09:45:17.061Z,16.37
2018-05-24T09:47:44.572Z,14.90
2018-05-24T09:50:13.068Z,14.50
2018-05-24T09:52:40.556Z,15.07
2018-05-24T09:55:08.126Z,15.00
2018-05-24T09:57:35.576Z,16.97
2018-05-24T10:00:03.111Z,15.67
2018-05-24T10:02:30.693Z,15.00
2018-05-24T10:04:58.283Z,15.23
2018-05-24T10:07:25.756Z,14.37
2018-05-24T10:09:53.946Z,15.33
2018-05-24T10:12:22.414Z,13.97
2018-05-24T10:14:49.879Z,14.33
2018-05-24T10:17:17.452Z,13.53
2018-05-24T10:19:44.901Z,12.13
2018-05-24T10:22:12.539Z,14.03
2018-05-24T10:24:40.041Z,12.70
2018-05-24T10:27:07.672Z,12.10
2018-05-24T10:29:35.179Z,12.40
2018-05-24T10:32:02.828Z,12.50
2018-05-24T10:34:30.504Z,10.50
2018-05-24T10:36:59.057Z,11.40
2018-05-24T10:39:26.825Z,9.60
2018-05-24T10:44:26.597Z,11.50
2018-05-24T10:46:54.081Z,11.70
2018-05-24T10:49:21.624Z,11.17
2018-05-24T10:51:49.607Z,11.53
2018-05-24T10:54:17.073Z,11.60
2018-05-24T10:56:44.719Z,11.90
2018-05-24T10:59:15.655Z,12.03
2018-05-24T11:01:47.216Z,11.90
2018-05-24T11:04:15.197Z,11.50
2018-05-24T11:06:42.746Z,10.00
2018-05-24T11:09:12.747Z,9.37
2018-05-24T11:11:40.370Z,9.83
2018-05-24T11:14:07.900Z,8.30
2018-05-24T11:16:35.999Z,8.40
2018-05-24T11:19:04.313Z,7.67
2018-05-24T11:21:31.877Z,8.93
2018-05-24T11:24:00.151Z,10.20
2018-05-24T11:26:27.921Z,8.53
2018-05-24T11:28:55.533Z,9.77
2018-05-24T11:31:23.398Z,9.60
2018-05-24T11:33:52.224Z,8.97
2018-05-24T11:36:19.776Z,8.90
2018-05-24T11:38:47.271Z,8.83
2018-05-24T11:41:16.499Z,8.17
2018-05-24T11:43:44.329Z,7.73
2018-05-24T11:46:12.519Z,7.40
2018-05-24T11:48:40.751Z,8.17
2018-05-24T11:51:08.233Z,8.00
2018-05-24T11:53:36.144Z,6.33
2018-05-24T11:56:03.659Z,5.80
2018-05-24T11:58:31.116Z,6.57
2018-05-24T12:00:58.693Z,6.70
2018-05-24T12:03:27.175Z,5.80
2018-05-24T12:05:54.990Z,5.13
2018-05-24T12:08:23.909Z,4.80
2018-05-24T12:10:51.720Z,4.80
2018-05-24T12:13:19.680Z,5.53
2018-05-24T12:15:47.909Z,5.63
2018-05-24T12:18:16.145Z,4.50
2018-05-24T12:20:43.701Z,5.10
2018-05-24T12:23:11.307Z,5.63
2018-05-24T12:25:42.970Z,5.00
2018-05-24T12:28:11.915Z,5.63
2018-05-24T12:30:40.561Z,5.90
2018-05-24T12:33:08.098Z,6.30
2018-05-24T12:35:35.780Z,6.83
2018-05-24T12:38:04.115Z,6.70
2018-05-24T12:40:31.722Z,5.90
2018-05-24T12:42:59.520Z,5.67
2018-05-24T12:45:27.935Z,5.90
2018-05-24T12:47:55.778Z,5.30
2018-05-24T12:50:23.296Z,6.33
2018-05-24T12:52:50.937Z,5.90
2018-05-24T12:55:18.649Z,6.37
2018-05-24T12:57:46.193Z,6.93
2018-05-24T13:00:14.495Z,6.97
2018-05-24T13:02:42.800Z,6.60
2018-05-24T13:05:10.300Z,6.60
2018-05-24T13:07:37.807Z,6.87
2018-05-24T13:10:05.270Z,6.97
2018-05-24T13:12:32.745Z,7.80
2018-05-24T13:15:00.237Z,8.97
2018-05-24T13:17:29.541Z,9.27
2018-05-24T13:19:57.524Z,10.00
2018-05-24T13:22:25.491Z,8.03
2018-05-24T13:24:53.642Z,9.70
2018-05-24T13:27:21.112Z,8.10
2018-05-24T13:29:48.697Z,8.87
2018-05-24T13:32:16.276Z,10.30
2018-05-24T13:34:45.147Z,10.10
2018-05-24T13:37:12.995Z,9.30
2018-05-24T13:39:40.560Z,10.00
2018-05-24T13:42:08.175Z,10.07
2018-05-24T13:44:37.427Z,9.27
2018-05-24T13:47:05.065Z,10.17
2018-05-24T13:49:32.852Z,9.90
2018-05-24T13:52:00.362Z,9.80
2018-05-24T13:54:28.617Z,10.40
2018-05-24T13:56:56.912Z,11.37
2018-05-24T13:59:25.143Z,11.70
2018-05-24T14:01:52.733Z,12.77
2018-05-24T14:04:20.254Z,10.60
2018-05-24T14:06:48.241Z,11.63
2018-05-24T14:09:17.502Z,11.13
2018-05-24T14:11:46.147Z,12.13
2018-05-24T14:16:47.955Z,10.87
2018-05-24T14:19:15.842Z,10.87
2018-05-24T14:21:45.250Z,10.33
2018-05-24T14:24:13.261Z,9.47
2018-05-24T14:26:41.317Z,14.10
2018-05-24T14:29:08.800Z,15.90
2018-05-24T14:31:36.420Z,14.17
2018-05-24T14:34:04.746Z,13.07
2018-05-24T14:36:34.913Z,15.13
2018-05-24T14:39:02.988Z,13.90
2018-05-24T14:41:31.725Z,13.93
2018-05-24T14:44:00.678Z,13.00
2018-05-24T14:46:28.991Z,13.87
2018-05-24T14:48:59.497Z,6.00
2018-05-24T14:51:28.100Z,3.60
2018-05-24T14:53:59.249Z,10.33
2018-05-24T14:56:28.443Z,3.50
2018-05-24T14:58:56.061Z,3.30
2018-05-24T15:01:23.533Z,4.53
2018-05-24T15:03:51.074Z,3.90
2018-05-24T15:06:18.695Z,3.90
2018-05-24T15:08:46.202Z,3.43
2018-05-24T15:11:14.087Z,2.60
2018-05-24T15:13:50.748Z,2.10
2018-05-24T15:16:18.234Z,2.20
2018-05-24T15:18:46.219Z,1.90
2018-05-24T15:21:13.859Z,1.67
2018-05-24T15:23:41.354Z,2.37
2018-05-24T15:26:09.143Z,2.27
2018-05-24T15:28:36.753Z,2.00
2018-05-24T15:31:04.252Z,2.07
2018-05-24T15:33:33.053Z,2.40
2018-05-24T15:36:00.592Z,2.20
2018-05-24T15:38:28.375Z,1.90
2018-05-24T15:40:56.007Z,2.20
2018-05-24T15:43:23.823Z,3.27
2018-05-24T15:45:51.701Z,2.53
2018-05-24T15:48:19.234Z,2.50
2018-05-24T15:52:57.134Z,3.23
2018-05-24T15:55:25.110Z,3.07
2018-05-24T15:57:52.599Z,2.70
2018-05-24T16:00:21.493Z,2.70
2018-05-24T16:02:50.170Z,2.87
2018-05-24T16:05:18.664Z,2.97
2018-05-24T16:07:46.156Z,4.00
2018-05-24T16:10:13.603Z,3.90
2018-05-24T16:12:41.240Z,3.90
2018-05-24T16:15:09.694Z,4.07
2018-05-24T16:17:37.236Z,3.90
2018-05-24T16:20:04.726Z,4.47
2018-05-24T16:22:33.202Z,3.93
2018-05-24T16:25:01.554Z,4.20
2018-05-24T16:27:29.910Z,4.60
2018-05-24T16:29:57.380Z,4.90
2018-05-24T16:32:24.953Z,7.53
2018-05-24T16:34:52.849Z,5.37
2018-05-24T16:37:20.749Z,4.90
2018-05-24T16:39:48.691Z,4.00
2018-05-24T16:42:16.262Z,5.37
2018-05-24T16:44:43.843Z,4.63
2018-05-24T16:47:11.366Z,3.87
2018-05-24T16:52:13.012Z,5.20
2018-05-24T16:54:41.121Z,4.67
2018-05-24T16:57:08.622Z,5.00
2018-05-24T16:59:36.140Z,4.70
2018-05-24T17:02:03.644Z,3.87
2018-05-24T17:04:31.146Z,3.80
2018-05-24T17:06:59.727Z,4.90
2018-05-24T17:09:28.419Z,4.20
2018-05-24T17:11:55.994Z,4.00
2018-05-24T17:14:25.172Z,3.80
2018-05-24T17:16:54.196Z,4.30
2018-05-24T17:19:21.678Z,4.80
2018-05-24T17:21:50.267Z,3.80
2018-05-24T17:24:19.788Z,4.30
2018-05-24T17:26:47.765Z,5.10
2018-05-24T17:29:15.335Z,4.63
2018-05-24T17:31:43.969Z,5.10
2018-05-24T17:34:11.441Z,4.17
2018-05-24T17:36:38.942Z,5.03
2018-05-24T17:39:07.263Z,4.10
2018-05-24T17:41:35.278Z,3.90
2018-05-24T17:44:03.014Z,4.00
2018-05-24T17:46:30.872Z,4.30
2018-05-24T17:48:58.356Z,4.50
2018-05-24T17:51:26.221Z,4.30
2018-05-24T17:53:55.473Z,4.47
2018-05-24T17:56:23.019Z,5.03
2018-05-24T17:58:50.556Z,5.13
2018-05-24T18:01:18.383Z,4.93
2018-05-24T18:03:46.492Z,3.90
2018-05-24T18:06:14.054Z,4.37
2018-05-24T18:08:41.936Z,5.17
2018-05-24T18:14:02.212Z,5.80
2018-05-24T18:16:33.775Z,5.13
2018-05-24T18:19:36.197Z,5.07
2018-05-24T18:22:04.125Z,4.83
2018-05-24T18:27:47.452Z,5.50
2018-05-24T18:55:49.215Z,6.30
2018-05-24T18:58:42.920Z,6.20
2018-05-24T19:01:24.253Z,6.77
2018-05-24T19:03:51.727Z,7.40
2018-05-24T19:06:27.704Z,7.03
2018-05-24T19:18:41.229Z,6.23
2018-05-24T19:21:37.785Z,6.90
2018-05-24T19:24:05.362Z,6.67
2018-05-24T19:29:45.251Z,7.87
2018-05-24T19:32:22.215Z,7.27
2018-05-24T19:34:51.860Z,7.20
2018-05-24T19:37:24.894Z,7.53
2018-05-24T19:43:01.655Z,6.73
2018-05-24T19:45:29.565Z,8.00
2018-05-24T19:47:57.045Z,7.23
2018-05-24T19:50:24.644Z,7.43
2018-05-24T19:52:52.126Z,8.50
2018-05-24T19:55:19.856Z,7.80
2018-05-24T19:57:47.398Z,8.47
2018-05-24T20:00:15.792Z,7.37
2018-05-24T20:02:43.235Z,8.03
2018-05-24T20:05:10.763Z,8.20
2018-05-24T20:07:38.517Z,7.20
2018-05-24T20:10:06.054Z,8.20
2018-05-24T20:12:33.529Z,8.90
2018-05-24T20:15:01.054Z,7.90
2018-05-24T20:17:28.511Z,8.20
2018-05-24T20:19:56.102Z,8.30
2018-05-24T20:22:23.587Z,8.53
2018-05-24T20:24:51.815Z,10.27
2018-05-24T20:27:19.730Z,9.70
2018-05-24T20:29:47.214Z,10.27
2018-05-24T20:32:15.564Z,10.10
2018-05-24T20:34:43.050Z,9.83
2018-05-24T20:37:10.536Z,9.33
2018-05-24T20:39:40.493Z,9.10
2018-05-24T20:42:07.990Z,8.73
2018-05-24T20:44:35.491Z,8.43
2018-05-24T20:47:03.284Z,9.70
2018-05-24T20:49:30.789Z,9.10
2018-05-24T20:51:58.282Z,8.63
2018-05-24T20:54:26.735Z,9.70
2018-05-24T20:56:54.358Z,9.90
2018-05-24T20:59:21.850Z,9.70
2018-05-24T21:01:51.181Z,9.23
2018-05-24T21:04:18.940Z,9.07
2018-05-24T21:06:46.415Z,9.40
2018-05-24T21:09:13.884Z,9.30
2018-05-24T21:11:41.776Z,9.70
2018-05-24T21:14:09.285Z,8.83
2018-05-24T21:16:37.060Z,8.83
2018-05-24T21:19:04.613Z,9.27
2018-05-24T21:21:32.898Z,9.00
2018-05-24T21:24:00.405Z,9.70
2018-05-24T21:26:27.884Z,9.40
2018-05-24T21:28:55.686Z,8.83
2018-05-24T21:31:23.153Z,9.10
2018-05-24T21:33:50.760Z,9.70
2018-05-24T21:36:18.561Z,9.03
2018-05-24T21:38:46.079Z,10.20
2018-05-24T21:41:13.633Z,9.20
2018-05-24T21:43:41.089Z,10.87
2018-05-24T21:46:08.567Z,10.90
2018-05-24T21:48:36.048Z,10.87
2018-05-24T21:51:03.647Z,11.50
2018-05-24T21:53:31.298Z,10.70
2018-05-24T21:55:59.244Z,10.33
2018-05-24T21:58:29.370Z,9.90
2018-05-24T22:00:56.894Z,10.90
2018-05-24T22:03:24.661Z,11.87
2018-05-24T22:05:52.147Z,11.10
2018-05-24T22:08:19.623Z,11.40
2018-05-24T22:10:47.176Z,11.20
2018-05-24T22:13:16.075Z,11.17
2018-05-24T22:15:43.582Z,11.90
2018-05-24T22:18:11.087Z,11.40
2018-05-24T22:20:40.143Z,11.27
2018-05-24T22:23:08.491Z,11.73
2018-05-24T22:25:36.719Z,11.30
2018-05-24T22:28:04.162Z,11.23
2018-05-24T22:30:31.954Z,9.77
2018-05-24T22:32:59.438Z,10.70
2018-05-24T22:35:27.909Z,9.83
2018-05-24T22:37:56.022Z,9.83
2018-05-24T22:40:23.482Z,9.60
2018-05-24T22:42:51.255Z,9.97
2018-05-24T22:45:18.757Z,11.80
2018-05-24T22:47:46.217Z,11.03
2018-05-24T22:50:13.715Z,11.90
2018-05-24T22:52:41.522Z,10.83
2018-05-24T22:55:09.045Z,12.83
2018-05-24T22:57:37.612Z,13.80
2018-05-24T23:00:05.089Z,14.57
2018-05-24T23:02:32.556Z,15.00
2018-05-24T23:05:00.144Z,13.43
2018-05-24T23:07:27.581Z,14.33
2018-05-24T23:09:55.101Z,14.47
2018-05-24T23:12:23.399Z,14.87
2018-05-24T23:14:50.959Z,14.17
2018-05-24T23:17:18.414Z,14.37
2018-05-24T23:19:46.186Z,13.90
2018-05-24T23:22:25.325Z,15.43
2018-05-24T23:24:52.769Z,15.93
2018-05-24T23:27:20.246Z,15.20
2018-05-24T23:29:47.964Z,15.30
2018-05-24T23:32:15.749Z,16.17
2018-05-24T23:34:43.205Z,15.87
2018-05-24T23:37:11.000Z,14.10
2018-05-24T23:39:38.478Z,15.30
2018-05-24T23:42:06.003Z,13.23
2018-05-24T23:44:33.516Z,13.90
2018-05-24T23:47:01.320Z,14.87
2018-05-24T23:49:30.011Z,15.10
2018-05-24T23:51:57.576Z,16.27
2018-05-24T23:54:25.768Z,15.80
2018-05-24T23:56:53.546Z,16.60
2018-05-24T23:59:21.064Z,15.83
